createdAt,value
2022-12-08T00:05:30.071Z,26.77
2022-12-08T00:15:31.927Z,15.85
2022-12-08T00:25:36.235Z,16.50
2022-12-08T00:35:42.938Z,11.40
2022-12-08T00:45:45.160Z,26.38
2022-12-08T00:55:47.064Z,18.52
2022-12-08T01:05:48.836Z,15.68
2022-12-08T01:15:50.729Z,13.70
2022-12-08T01:25:52.653Z,20.48
2022-12-08T01:35:55.309Z,17.98
2022-12-08T01:45:57.256Z,15.63
2022-12-08T01:56:20.729Z,12.60
2022-12-08T02:06:23.007Z,16.02
2022-12-08T02:16:55.929Z,13.02
2022-12-08T02:27:29.950Z,27.55
2022-12-08T02:37:54.843Z,14.10
2022-12-08T02:47:59.028Z,14.40
2022-12-08T02:58:03.628Z,17.58
2022-12-08T03:08:08.021Z,35.00
2022-12-08T03:18:13.938Z,20.85
2022-12-08T03:28:16.263Z,30.05
2022-12-08T03:38:18.578Z,20.08
2022-12-08T03:48:20.453Z,24.55
2022-12-08T03:58:22.529Z,18.30
2022-12-08T04:08:24.440Z,23.23
2022-12-08T04:18:26.309Z,21.45
2022-12-08T04:28:28.262Z,17.83
2022-12-08T04:38:30.526Z,29.95
2022-12-08T04:48:32.404Z,14.65
2022-12-08T04:58:34.593Z,22.15
2022-12-08T05:08:36.620Z,24.02
2022-12-08T05:18:39.102Z,18.05
2022-12-08T05:28:42.654Z,23.73
2022-12-08T05:38:46.427Z,21.13
2022-12-08T05:48:48.200Z,24.58
2022-12-08T05:58:50.375Z,34.63
2022-12-08T06:08:52.334Z,26.65
2022-12-08T06:18:54.533Z,29.25
2022-12-08T06:28:56.402Z,22.65
2022-12-08T06:38:58.293Z,22.45
2022-12-08T06:49:00.020Z,24.95
2022-12-08T06:59:03.231Z,29.80
2022-12-08T07:09:05.131Z,27.67
2022-12-08T07:19:06.998Z,27.00
2022-12-08T07:29:10.110Z,26.05
2022-12-08T07:39:12.126Z,53.10
2022-12-08T07:49:14.102Z,18.67
2022-12-08T07:59:15.997Z,32.25
2022-12-08T08:09:17.775Z,29.65
2022-12-08T08:19:19.817Z,32.97
2022-12-08T08:29:22.049Z,27.85
2022-12-08T08:39:24.370Z,25.10
2022-12-08T08:49:26.453Z,26.40
2022-12-08T08:59:29.009Z,23.30
2022-12-08T09:09:30.822Z,24.63
2022-12-08T09:19:32.705Z,17.40
2022-12-08T09:29:36.448Z,22.70
2022-12-08T09:39:38.409Z,20.25
2022-12-08T09:49:45.676Z,21.70
2022-12-08T09:59:54.891Z,23.30
2022-12-08T10:10:09.853Z,26.10
2022-12-08T10:20:18.730Z,26.92
2022-12-08T10:30:22.252Z,15.50
2022-12-08T10:40:27.797Z,26.83
2022-12-08T10:50:43.626Z,19.85
2022-12-08T11:00:45.595Z,24.33
2022-12-08T11:10:47.878Z,24.42
2022-12-08T11:21:02.213Z,35.85
2022-12-08T11:31:17.476Z,38.22
2022-12-08T11:41:24.187Z,24.83
2022-12-08T11:51:37.837Z,24.35
2022-12-08T12:01:42.637Z,18.95
2022-12-08T12:12:11.773Z,17.33
2022-12-08T12:22:21.866Z,22.77
2022-12-08T12:32:24.736Z,16.17
2022-12-08T12:42:55.269Z,22.88
2022-12-08T12:52:57.057Z,16.77
2022-12-08T13:02:59.769Z,13.70
2022-12-08T13:13:06.318Z,14.93
2022-12-08T13:23:37.286Z,20.88
2022-12-08T13:33:41.158Z,27.67
2022-12-08T13:44:31.008Z,23.88
2022-12-08T14:05:17.982Z,29.63
2022-12-08T14:15:21.616Z,29.20
2022-12-08T14:25:26.273Z,27.60
2022-12-08T14:35:37.026Z,28.42
2022-12-08T14:45:45.048Z,49.00
2022-12-08T14:55:48.712Z,113.07
2022-12-08T15:06:03.511Z,64.25
2022-12-08T15:16:25.336Z,45.05
2022-12-08T15:26:28.323Z,67.00
2022-12-08T15:36:30.127Z,80.68
2022-12-08T15:46:32.216Z,63.10
2022-12-08T15:56:40.876Z,81.05
2022-12-08T16:17:16.772Z,112.15
2022-12-08T16:37:46.364Z,91.30
2022-12-08T16:47:53.703Z,76.40
2022-12-08T16:57:55.822Z,73.63
2022-12-08T17:07:58.824Z,65.15
2022-12-08T17:18:00.766Z,60.47
2022-12-08T17:28:02.641Z,97.47
2022-12-08T17:38:04.515Z,90.43
2022-12-08T17:48:06.547Z,76.60
2022-12-08T17:58:09.106Z,72.85
2022-12-08T18:08:11.415Z,70.22
2022-12-08T18:18:13.287Z,68.38
2022-12-08T18:28:16.639Z,83.15
2022-12-08T18:38:18.517Z,78.47
2022-12-08T18:48:20.311Z,68.65
2022-12-08T18:58:22.206Z,88.75
2022-12-08T19:08:29.709Z,75.88
2022-12-08T19:18:33.054Z,89.28
2022-12-08T19:28:35.792Z,76.50
2022-12-08T19:38:37.790Z,111.50
2022-12-08T19:48:39.771Z,104.13
2022-12-08T19:58:41.614Z,89.55
2022-12-08T20:08:48.967Z,117.75
2022-12-08T20:18:52.392Z,84.93
2022-12-08T20:28:54.254Z,82.78
2022-12-08T20:38:56.562Z,86.68
2022-12-08T20:48:58.512Z,102.07
2022-12-08T20:59:00.451Z,121.20
2022-12-08T21:09:02.395Z,122.50
2022-12-08T21:19:05.337Z,95.32
2022-12-08T21:29:07.449Z,88.50
2022-12-08T21:39:09.368Z,119.60
2022-12-08T21:49:11.400Z,77.43
2022-12-08T21:59:13.489Z,96.85
2022-12-08T22:09:15.695Z,120.78
2022-12-08T22:19:18.044Z,120.45
2022-12-08T22:29:20.046Z,123.40
2022-12-08T22:39:22.387Z,128.40
2022-12-08T22:49:24.962Z,138.73
2022-12-08T22:59:28.761Z,116.22
2022-12-08T23:09:30.714Z,107.47
2022-12-08T23:19:36.006Z,102.93
2022-12-08T23:30:15.593Z,86.95
2022-12-08T23:40:25.152Z,81.07
2022-12-08T23:50:27.325Z,91.63
